createdAt,value
2019-01-27T00:01:22.423Z,0.46
2019-01-27T00:06:30.274Z,0.38
2019-01-27T00:11:36.647Z,0.47
2019-01-27T00:16:50.264Z,0.53
2019-01-27T00:21:46.703Z,0.87
2019-01-27T00:26:52.797Z,0.70
2019-01-27T00:31:59.040Z,0.62
2019-01-27T00:37:05.294Z,0.37
2019-01-27T00:42:11.369Z,0.35
2019-01-27T00:47:17.735Z,0.25
2019-01-27T00:52:26.907Z,0.35
2019-01-27T00:57:32.952Z,0.34
2019-01-27T01:02:38.967Z,0.25
2019-01-27T01:07:45.017Z,0.35
2019-01-27T01:12:51.295Z,0.41
2019-01-27T01:17:57.341Z,0.29
2019-01-27T01:23:03.393Z,0.26
2019-01-27T01:28:09.481Z,0.35
2019-01-27T01:33:15.600Z,0.54
2019-01-27T01:38:21.621Z,0.35
2019-01-27T01:43:27.637Z,0.44
2019-01-27T01:48:33.751Z,0.25
2019-01-27T01:53:39.775Z,0.58
2019-01-27T01:58:45.894Z,0.42
2019-01-27T02:03:51.964Z,0.40
2019-01-27T02:08:57.979Z,0.46
2019-01-27T02:14:03.997Z,0.60
2019-01-27T02:19:10.052Z,0.28
2019-01-27T02:24:16.191Z,0.39
2019-01-27T02:29:22.220Z,0.32
2019-01-27T02:34:28.234Z,0.31
2019-01-27T02:39:34.294Z,0.25
2019-01-27T02:44:40.298Z,0.23
2019-01-27T02:49:46.328Z,0.59
2019-01-27T02:54:52.317Z,0.30
2019-01-27T02:59:58.275Z,0.37
2019-01-27T03:05:04.273Z,0.34
2019-01-27T03:10:10.276Z,0.22
2019-01-27T03:15:16.288Z,0.31
2019-01-27T03:20:22.311Z,0.18
2019-01-27T03:25:28.314Z,0.13
2019-01-27T03:30:34.372Z,0.11
2019-01-27T03:35:40.383Z,0.10
2019-01-27T03:40:46.397Z,0.11
2019-01-27T03:45:52.450Z,0.13
2019-01-27T03:50:58.459Z,0.07
2019-01-27T03:56:04.479Z,0.06
2019-01-27T04:01:10.459Z,0.05
2019-01-27T04:06:16.486Z,0.09
2019-01-27T04:11:22.493Z,0.23
2019-01-27T04:16:28.704Z,0.13
2019-01-27T04:21:34.711Z,0.23
2019-01-27T04:26:40.717Z,0.27
2019-01-27T04:31:46.729Z,0.12
2019-01-27T04:36:52.754Z,0.15
2019-01-27T04:41:58.801Z,0.26
2019-01-27T04:47:04.834Z,0.09
2019-01-27T04:52:10.876Z,0.10
2019-01-27T04:57:16.914Z,0.19
2019-01-27T05:02:22.984Z,0.06
2019-01-27T05:07:28.985Z,0.12
2019-01-27T05:12:35.003Z,0.19
2019-01-27T05:17:41.023Z,0.10
2019-01-27T05:22:47.109Z,0.03
2019-01-27T05:27:53.210Z,0.39
2019-01-27T05:32:59.251Z,0.07
2019-01-27T05:38:05.227Z,0.06
2019-01-27T05:43:11.245Z,0.09
2019-01-27T05:48:17.311Z,0.08
2019-01-27T05:53:23.316Z,0.13
2019-01-27T05:58:29.384Z,0.05
2019-01-27T06:03:35.395Z,0.11
2019-01-27T06:08:41.405Z,0.07
2019-01-27T06:13:47.393Z,0.07
2019-01-27T06:18:53.440Z,0.08
2019-01-27T06:24:03.509Z,0.19
2019-01-27T06:29:08.083Z,0.07
2019-01-27T06:34:14.109Z,0.13
2019-01-27T06:39:20.100Z,0.72
2019-01-27T06:44:26.119Z,0.23
2019-01-27T06:49:32.167Z,0.16
2019-01-27T06:54:38.164Z,0.07
2019-01-27T06:59:44.167Z,0.14
2019-01-27T07:04:50.186Z,0.19
2019-01-27T07:09:56.203Z,0.34
2019-01-27T07:15:02.211Z,0.27
2019-01-27T07:20:08.238Z,0.20
2019-01-27T07:25:14.257Z,0.20
2019-01-27T07:30:20.285Z,0.09
2019-01-27T07:35:26.286Z,0.12
2019-01-27T07:40:32.268Z,0.15
2019-01-27T07:45:38.320Z,0.14
2019-01-27T07:50:44.346Z,0.20
2019-01-27T07:55:50.363Z,0.28
2019-01-27T08:00:56.334Z,0.18
2019-01-27T08:06:02.368Z,0.19
2019-01-27T08:11:08.401Z,0.62
2019-01-27T08:16:14.608Z,0.42
2019-01-27T08:21:20.652Z,0.37
2019-01-27T08:26:26.655Z,0.19
2019-01-27T08:31:32.684Z,0.18
2019-01-27T08:36:38.740Z,0.23
2019-01-27T08:41:44.792Z,0.36
2019-01-27T08:46:50.901Z,0.48
2019-01-27T08:51:56.942Z,0.28
2019-01-27T08:57:02.969Z,0.42
2019-01-27T09:02:08.984Z,0.33
2019-01-27T09:07:15.066Z,0.62
2019-01-27T09:12:21.103Z,0.57
2019-01-27T09:17:27.122Z,0.31
2019-01-27T09:22:33.262Z,0.67
2019-01-27T09:27:39.340Z,0.29
2019-01-27T09:32:45.498Z,0.64
2019-01-27T09:37:51.621Z,0.60
2019-01-27T09:42:57.771Z,0.65
2019-01-27T09:48:03.811Z,0.31
2019-01-27T09:53:09.825Z,0.53
2019-01-27T09:58:15.832Z,0.57
2019-01-27T10:03:21.886Z,0.67
2019-01-27T10:08:27.963Z,0.35
2019-01-27T10:13:34.034Z,0.28
2019-01-27T10:18:40.060Z,0.30
2019-01-27T10:23:46.027Z,0.40
2019-01-27T10:28:52.042Z,0.41
2019-01-27T10:33:58.172Z,0.41
2019-01-27T10:39:04.215Z,0.35
2019-01-27T10:44:10.279Z,2.22
2019-01-27T10:49:16.348Z,0.71
2019-01-27T10:54:22.369Z,0.90
2019-01-27T10:59:28.649Z,0.97
2019-01-27T11:04:34.705Z,0.53
2019-01-27T11:09:40.748Z,0.67
2019-01-27T11:14:46.833Z,3.32
2019-01-27T11:19:52.856Z,3.59
2019-01-27T11:24:58.889Z,2.72
2019-01-27T11:30:04.869Z,2.14
2019-01-27T11:35:10.902Z,0.52
2019-01-27T11:40:16.939Z,0.74
2019-01-27T11:45:22.971Z,0.43
2019-01-27T11:50:29.023Z,0.38
2019-01-27T11:55:35.151Z,0.57
2019-01-27T12:00:41.221Z,0.36
2019-01-27T12:05:47.256Z,0.48
2019-01-27T12:10:53.279Z,0.61
2019-01-27T12:15:59.337Z,0.42
2019-01-27T12:21:05.410Z,0.47
2019-01-27T12:26:11.434Z,0.59
2019-01-27T12:31:18.641Z,0.94
2019-01-27T12:36:24.778Z,3.46
2019-01-27T12:41:30.832Z,0.55
2019-01-27T12:46:36.845Z,0.50
2019-01-27T12:51:42.856Z,0.69
2019-01-27T12:56:49.104Z,0.58
2019-01-27T13:01:55.163Z,0.69
2019-01-27T13:07:01.244Z,0.63
2019-01-27T13:12:07.288Z,0.54
2019-01-27T13:17:13.384Z,0.32
2019-01-27T13:22:19.524Z,0.37
2019-01-27T13:27:25.578Z,0.25
2019-01-27T13:32:31.661Z,0.44
2019-01-27T13:37:37.713Z,0.43
2019-01-27T13:42:43.713Z,0.20
2019-01-27T13:47:49.709Z,0.39
2019-01-27T13:52:55.739Z,0.23
2019-01-27T13:58:01.754Z,0.22
2019-01-27T14:03:07.804Z,0.50
2019-01-27T14:08:13.828Z,0.33
2019-01-27T14:13:19.818Z,0.57
2019-01-27T14:18:25.821Z,0.27
2019-01-27T14:23:31.852Z,1.88
2019-01-27T14:28:39.520Z,0.51
2019-01-27T14:33:45.576Z,0.73
2019-01-27T14:38:51.636Z,0.52
2019-01-27T14:43:57.616Z,0.48
2019-01-27T14:49:03.755Z,0.36
2019-01-27T14:54:09.816Z,4.56
2019-01-27T14:59:15.834Z,0.46
2019-01-27T15:04:21.908Z,0.26
2019-01-27T15:09:28.039Z,0.58
2019-01-27T15:14:34.116Z,0.77
2019-01-27T15:19:40.177Z,0.64
2019-01-27T15:24:46.275Z,0.78
2019-01-27T15:29:52.382Z,1.96
2019-01-27T15:34:58.438Z,1.87
2019-01-27T15:40:04.794Z,1.35
2019-01-27T15:45:10.870Z,2.22
2019-01-27T15:50:17.288Z,1.31
2019-01-27T15:55:23.397Z,1.32
2019-01-27T16:00:29.503Z,3.07
2019-01-27T16:05:36.223Z,1.58
2019-01-27T16:10:42.426Z,1.68
2019-01-27T16:15:48.521Z,1.34
2019-01-27T16:20:54.540Z,1.37
2019-01-27T16:26:00.663Z,1.45
2019-01-27T16:31:06.793Z,1.91
2019-01-27T16:36:12.915Z,1.46
2019-01-27T16:41:18.926Z,2.62
2019-01-27T16:46:25.008Z,1.68
2019-01-27T16:51:31.074Z,2.17
2019-01-27T16:56:37.075Z,2.21
2019-01-27T17:01:43.108Z,1.84
2019-01-27T17:06:49.148Z,2.58
2019-01-27T17:11:55.161Z,1.36
2019-01-27T17:17:01.248Z,2.35
2019-01-27T17:22:07.247Z,1.98
2019-01-27T17:27:13.575Z,2.47
2019-01-27T17:32:19.823Z,2.85
2019-01-27T17:37:25.878Z,2.37
2019-01-27T17:42:31.893Z,3.79
2019-01-27T17:47:37.949Z,3.62
2019-01-27T17:52:43.989Z,3.55
2019-01-27T17:57:50.083Z,5.87
2019-01-27T18:02:56.155Z,6.20
2019-01-27T18:08:02.204Z,9.83
2019-01-27T18:13:08.231Z,5.17
2019-01-27T18:18:14.276Z,3.82
2019-01-27T18:23:20.340Z,3.66
2019-01-27T18:28:26.480Z,3.14
2019-01-27T18:33:32.550Z,4.09
2019-01-27T18:43:38.910Z,4.34
2019-01-27T18:48:44.893Z,4.06
2019-01-27T18:53:50.947Z,3.02
2019-01-27T18:58:57.039Z,2.98
2019-01-27T19:04:03.082Z,2.48
2019-01-27T19:09:09.182Z,3.82
2019-01-27T19:14:15.292Z,3.11
2019-01-27T19:19:21.294Z,3.24
2019-01-27T19:24:27.417Z,3.78
2019-01-27T19:29:33.460Z,3.41
2019-01-27T19:34:39.507Z,5.76
2019-01-27T19:39:45.575Z,3.57
2019-01-27T19:44:51.585Z,3.76
2019-01-27T19:49:57.717Z,6.05
2019-01-27T19:55:03.806Z,6.07
2019-01-27T20:00:09.794Z,4.28
2019-01-27T20:05:15.897Z,4.32
2019-01-27T20:10:21.998Z,6.72
2019-01-27T20:15:28.048Z,4.71
2019-01-27T20:20:34.094Z,6.58
2019-01-27T20:25:40.408Z,4.47
2019-01-27T20:30:46.253Z,4.43
2019-01-27T20:35:52.320Z,5.03
2019-01-27T20:40:58.525Z,4.47
2019-01-27T20:46:04.607Z,6.53
2019-01-27T20:51:10.719Z,6.76
2019-01-27T20:56:16.749Z,4.45
2019-01-27T21:01:22.833Z,4.02
2019-01-27T21:06:28.877Z,5.67
2019-01-27T21:11:34.896Z,4.20
2019-01-27T21:16:40.983Z,3.91
2019-01-27T21:21:46.967Z,3.83
2019-01-27T21:26:52.984Z,5.22
2019-01-27T21:31:59.012Z,3.90
2019-01-27T21:37:05.047Z,4.34
2019-01-27T21:42:11.204Z,5.76
2019-01-27T21:47:17.199Z,3.97
2019-01-27T21:52:23.434Z,5.02
2019-01-27T21:57:29.446Z,3.88
2019-01-27T22:02:35.424Z,3.85
2019-01-27T22:07:41.481Z,5.28
2019-01-27T22:12:47.601Z,3.21
2019-01-27T22:17:53.649Z,3.45
2019-01-27T22:22:59.751Z,3.41
2019-01-27T22:28:05.741Z,2.86
2019-01-27T22:33:11.770Z,3.06
2019-01-27T22:38:17.841Z,2.72
2019-01-27T22:43:24.009Z,2.64
2019-01-27T22:48:30.244Z,3.62
2019-01-27T22:53:36.364Z,2.00
2019-01-27T22:58:42.523Z,2.06
2019-01-27T23:03:48.570Z,2.72
2019-01-27T23:08:54.633Z,1.76
2019-01-27T23:14:00.764Z,1.89
2019-01-27T23:19:06.765Z,1.71
2019-01-27T23:24:12.792Z,2.42
2019-01-27T23:29:18.834Z,2.66
2019-01-27T23:34:24.835Z,2.00
2019-01-27T23:39:30.894Z,3.14
2019-01-27T23:44:36.941Z,2.06
2019-01-27T23:49:43.058Z,2.05
2019-01-27T23:54:49.065Z,3.09
2019-01-27T23:59:55.055Z,2.05
